Nomad — 9HA2354 — position and weather

sailwx.info

Track history (hours):
 
Tides and Currents Weather Stations Pressure Air Temp Water Temp Dewpoint Dewpoint Depression Visibility Wind Speed Wind Dir Waves Ship Positions

Nomad

Last reported at 2014-Aug-27 20:31 UTC. Time now 2014-Aug-27 21:20 UTC.
Position N 37°25' E 025°20'.

Length 70 m; draft 2.8 m.

Type: Other ship. MMSI: 248413000.

Date/timePositionNaut miles runAvg speedWind from/ knotsBaromVisibWave heightAir tempDewpointWater temp
2014-Aug-27 20:31N 37°25' E 025°20'0 0.0
2014-Aug-27 19:33N 37°25' E 025°20'0 0.1
2014-Aug-27 18:31N 37°24' E 025°20'0 0.0
2014-Aug-27 17:28N 37°24' E 025°20'0 0.0
2014-Aug-27 16:33N 37°24' E 025°20'0 0.0
2014-Aug-27 15:31N 37°24' E 025°20'0 0.0
2014-Aug-27 14:31N 37°24' E 025°20'0 0.0
2014-Aug-27 13:28N 37°24' E 025°20'0 0.0
2014-Aug-27 12:34N 37°24' E 025°20'0 0.0
2014-Aug-27 11:30N 37°24' E 025°20'0 0.0
2014-Aug-27 10:34N 37°24' E 025°20'0 0.1
2014-Aug-27 09:31N 37°24' E 025°20'0 0.0
2014-Aug-27 08:33N 37°24' E 025°20'0 0.0
2014-Aug-27 07:28N 37°24' E 025°20'5 5.7
2014-Aug-27 06:33N 37°27' E 025°15'1211.8
2014-Aug-27 05:33N 37°27' E 025°00'3 2.7
2014-Aug-27 04:33N 37°27' E 024°57'0 0.0
2014-Aug-27 03:30N 37°27' E 024°57'0 0.0
2014-Aug-27 02:30N 37°27' E 024°57'0 0.0
2014-Aug-27 01:33N 37°27' E 024°57'0 0.0
2014-Aug-27 00:33N 37°27' E 024°57'0 0.0
2014-Aug-26 23:33N 37°27' E 024°57'0 0.0
2014-Aug-26 22:31N 37°27' E 024°57'0 0.0
2014-Aug-26 21:31N 37°27' E 024°57'0 0.0
2014-Aug-26 20:33N 37°27' E 024°57'0 0.0
2014-Aug-26 19:31N 37°27' E 024°57'0 0.0
2014-Aug-26 18:34N 37°27' E 024°57'0 0.0
2014-Aug-26 17:33N 37°27' E 024°57'0 0.0
2014-Aug-26 16:33N 37°27' E 024°57'0 0.4
2014-Aug-26 15:33N 37°26' E 024°57'1111.5
2014-Aug-26 14:33N 37°18' E 025°06'1110.9
2014-Aug-26 13:33N 37°08' E 025°14'0 0.1
2014-Aug-26 12:32N 37°08' E 025°14'0 0.0
2014-Aug-26 11:29N 37°08' E 025°14'0 0.0
2014-Aug-26 10:29N 37°08' E 025°14'0 0.0
2014-Aug-26 09:32N 37°08' E 025°14'0 0.0
2014-Aug-26 08:32N 37°08' E 025°14'0 0.0
2014-Aug-26 07:32N 37°08' E 025°14'0 0.0
2014-Aug-26 06:32N 37°08' E 025°14'0 0.0
2014-Aug-26 05:32N 37°08' E 025°14'0 0.0
2014-Aug-26 04:32N 37°08' E 025°14'0 0.0
2014-Aug-26 03:32N 37°08' E 025°14'0 0.0
2014-Aug-26 02:32N 37°08' E 025°14'0 0.0
2014-Aug-26 01:32N 37°08' E 025°14'0 0.0
2014-Aug-26 00:32N 37°08' E 025°14'0 0.0
2014-Aug-25 23:32N 37°08' E 025°14'0 0.0
2014-Aug-25 22:29N 37°08' E 025°14'1 1.0
2014-Aug-25 21:32N 37°08' E 025°14'1 1.4
2014-Aug-25 20:33N 37°09' E 025°15'8 8.0
2014-Aug-25 19:33N 37°01' E 025°17'1212.5
2014-Aug-25 18:33N 36°49' E 025°15'1212.3
2014-Aug-25 17:33N 36°36' E 025°16'1312.6
2014-Aug-25 16:33N 36°26' E 025°24'1 0.0
2014-Aug-24 05:05N 36°25' E 025°25'612.0
2014-Aug-24 04:33N 36°30' E 025°20'1313.2
2014-Aug-24 03:33N 36°42' E 025°13'1313.0
2014-Aug-24 02:33N 36°51' E 025°02'1313.0
2014-Aug-24 01:33N 36°60' E 024°50'1313.0
2014-Aug-24 00:33N 37°09' E 024°38'1312.4
2014-Aug-23 23:29N 37°16' E 024°24'3913.2
2014-Aug-23 20:33N 37°43' E 023°49'7 7.4
2014-Aug-23 19:33N 37°50' E 023°46'0 0.0
2014-Aug-23 03:31N 37°50' E 023°46'0 0.0
2014-Aug-23 02:33N 37°50' E 023°46'0 0.0
2014-Aug-23 01:31N 37°50' E 023°46'0 0.0
2014-Aug-23 00:33N 37°50' E 023°46'0 0.0
2014-Aug-22 23:33N 37°50' E 023°46'0 0.1
2014-Aug-22 22:33N 37°50' E 023°46'0 0.0
2014-Aug-22 21:33N 37°50' E 023°46'0 0.0
2014-Aug-22 20:31N 37°50' E 023°46'0 0.0
2014-Aug-22 19:33N 37°50' E 023°46'0 0.0
2014-Aug-22 18:33N 37°50' E 023°46'0 0.0
2014-Aug-22 17:34N 37°50' E 023°46'0 0.0
2014-Aug-22 16:30N 37°50' E 023°46'0 0.0
2014-Aug-22 15:33N 37°50' E 023°46'0 0.0
2014-Aug-22 14:30N 37°50' E 023°46'0 0.0
2014-Aug-22 13:27N 37°50' E 023°46'0 0.0
2014-Aug-22 12:30N 37°50' E 023°46'0 0.0
2014-Aug-22 11:33N 37°50' E 023°46'0 0.0
2014-Aug-22 10:33N 37°50' E 023°46'0 0.1
2014-Aug-22 09:24N 37°50' E 023°46'0 0.0
2014-Aug-22 08:30N 37°50' E 023°46'0 0.0
2014-Aug-22 07:33N 37°50' E 023°46'0 0.0
2014-Aug-22 06:24N 37°50' E 023°46'0 0.0
2014-Aug-22 05:24N 37°50' E 023°46'0 0.0
2014-Aug-22 04:30N 37°50' E 023°46'0 0.0
2014-Aug-22 03:30N 37°50' E 023°46'0 0.0
2014-Aug-22 02:33N 37°50' E 023°46'0 0.0
2014-Aug-22 01:30N 37°50' E 023°46'0 0.0
2014-Aug-22 00:30N 37°50' E 023°46'0 0.0
2014-Aug-21 23:30N 37°50' E 023°46'0 0.0
2014-Aug-21 22:33N 37°50' E 023°46'0 0.0
2014-Aug-21 21:30N 37°50' E 023°46'0 0.0
2014-Aug-21 20:30N 37°50' E 023°46'0 0.0
2014-Aug-21 19:30N 37°50' E 023°46'0 0.0
2014-Aug-21 18:33N 37°50' E 023°46'0 0.0
2014-Aug-21 17:30N 37°50' E 023°46'0 0.0
2014-Aug-21 16:33N 37°50' E 023°46'0 0.0
2014-Aug-21 15:33N 37°50' E 023°46'0 0.0
2014-Aug-21 14:30N 37°50' E 023°46'0 0.0
2014-Aug-21 13:30N 37°50' E 023°46'0 0.0
2014-Aug-21 12:33N 37°50' E 023°46'0 0.0
2014-Aug-21 11:33N 37°50' E 023°46'0 0.0
2014-Aug-21 10:24N 37°50' E 023°46'0 0.0
2014-Aug-21 09:30N 37°50' E 023°46'0 0.0
2014-Aug-21 08:30N 37°50' E 023°46'0 0.0
2014-Aug-21 07:33N 37°50' E 023°46'0 0.0
2014-Aug-21 06:33N 37°50' E 023°46'0 0.0
2014-Aug-21 05:33N 37°50' E 023°46'5 5.2
2014-Aug-21 04:33N 37°45' E 023°44'  
Track history (hours):
 
Tides and Currents Weather Stations Pressure Air Temp Water Temp Dewpoint Dewpoint Depression Visibility Wind Speed Wind Dir Waves Ship Positions

Nomad

Last reported at 2014-Aug-27 20:31 UTC. Time now 2014-Aug-27 21:20 UTC.
Position N 37°25' E 025°20'.

Length 70 m; draft 2.8 m.

Type: Other ship. MMSI: 248413000.

Date/timePositionNaut miles runAvg speedWind from/ knotsBaromVisibWave heightAir tempDewpointWater temp
2014-Aug-27 20:31N 37°25' E 025°20'0 0.0
2014-Aug-27 19:33N 37°25' E 025°20'0 0.1
2014-Aug-27 18:31N 37°24' E 025°20'0 0.0
2014-Aug-27 17:28N 37°24' E 025°20'0 0.0
2014-Aug-27 16:33N 37°24' E 025°20'0 0.0
2014-Aug-27 15:31N 37°24' E 025°20'0 0.0
2014-Aug-27 14:31N 37°24' E 025°20'0 0.0
2014-Aug-27 13:28N 37°24' E 025°20'0 0.0
2014-Aug-27 12:34N 37°24' E 025°20'0 0.0
2014-Aug-27 11:30N 37°24' E 025°20'0 0.0
2014-Aug-27 10:34N 37°24' E 025°20'0 0.1
2014-Aug-27 09:31N 37°24' E 025°20'0 0.0
2014-Aug-27 08:33N 37°24' E 025°20'0 0.0
2014-Aug-27 07:28N 37°24' E 025°20'5 5.7
2014-Aug-27 06:33N 37°27' E 025°15'1211.8
2014-Aug-27 05:33N 37°27' E 025°00'3 2.7
2014-Aug-27 04:33N 37°27' E 024°57'0 0.0
2014-Aug-27 03:30N 37°27' E 024°57'0 0.0
2014-Aug-27 02:30N 37°27' E 024°57'0 0.0
2014-Aug-27 01:33N 37°27' E 024°57'0 0.0
2014-Aug-27 00:33N 37°27' E 024°57'0 0.0
2014-Aug-26 23:33N 37°27' E 024°57'0 0.0
2014-Aug-26 22:31N 37°27' E 024°57'0 0.0
2014-Aug-26 21:31N 37°27' E 024°57'0 0.0
2014-Aug-26 20:33N 37°27' E 024°57'0 0.0
2014-Aug-26 19:31N 37°27' E 024°57'0 0.0
2014-Aug-26 18:34N 37°27' E 024°57'0 0.0
2014-Aug-26 17:33N 37°27' E 024°57'0 0.0
2014-Aug-26 16:33N 37°27' E 024°57'0 0.4
2014-Aug-26 15:33N 37°26' E 024°57'1111.5
2014-Aug-26 14:33N 37°18' E 025°06'1110.9
2014-Aug-26 13:33N 37°08' E 025°14'0 0.1
2014-Aug-26 12:32N 37°08' E 025°14'0 0.0
2014-Aug-26 11:29N 37°08' E 025°14'0 0.0
2014-Aug-26 10:29N 37°08' E 025°14'0 0.0
2014-Aug-26 09:32N 37°08' E 025°14'0 0.0
2014-Aug-26 08:32N 37°08' E 025°14'0 0.0
2014-Aug-26 07:32N 37°08' E 025°14'0 0.0
2014-Aug-26 06:32N 37°08' E 025°14'0 0.0
2014-Aug-26 05:32N 37°08' E 025°14'0 0.0
2014-Aug-26 04:32N 37°08' E 025°14'0 0.0
2014-Aug-26 03:32N 37°08' E 025°14'0 0.0
2014-Aug-26 02:32N 37°08' E 025°14'0 0.0
2014-Aug-26 01:32N 37°08' E 025°14'0 0.0
2014-Aug-26 00:32N 37°08' E 025°14'0 0.0
2014-Aug-25 23:32N 37°08' E 025°14'0 0.0
2014-Aug-25 22:29N 37°08' E 025°14'1 1.0
2014-Aug-25 21:32N 37°08' E 025°14'1 1.4
2014-Aug-25 20:33N 37°09' E 025°15'8 8.0
2014-Aug-25 19:33N 37°01' E 025°17'1212.5
2014-Aug-25 18:33N 36°49' E 025°15'1212.3
2014-Aug-25 17:33N 36°36' E 025°16'1312.6
2014-Aug-25 16:33N 36°26' E 025°24'1 0.0
2014-Aug-24 05:05N 36°25' E 025°25'612.0
2014-Aug-24 04:33N 36°30' E 025°20'1313.2
2014-Aug-24 03:33N 36°42' E 025°13'1313.0
2014-Aug-24 02:33N 36°51' E 025°02'1313.0
2014-Aug-24 01:33N 36°60' E 024°50'1313.0
2014-Aug-24 00:33N 37°09' E 024°38'1312.4
2014-Aug-23 23:29N 37°16' E 024°24'3913.2
2014-Aug-23 20:33N 37°43' E 023°49'7 7.4
2014-Aug-23 19:33N 37°50' E 023°46'0 0.0
2014-Aug-23 03:31N 37°50' E 023°46'0 0.0
2014-Aug-23 02:33N 37°50' E 023°46'0 0.0
2014-Aug-23 01:31N 37°50' E 023°46'0 0.0
2014-Aug-23 00:33N 37°50' E 023°46'0 0.0
2014-Aug-22 23:33N 37°50' E 023°46'0 0.1
2014-Aug-22 22:33N 37°50' E 023°46'0 0.0
2014-Aug-22 21:33N 37°50' E 023°46'0 0.0
2014-Aug-22 20:31N 37°50' E 023°46'0 0.0
2014-Aug-22 19:33N 37°50' E 023°46'0 0.0
2014-Aug-22 18:33N 37°50' E 023°46'0 0.0
2014-Aug-22 17:34N 37°50' E 023°46'0 0.0
2014-Aug-22 16:30N 37°50' E 023°46'0 0.0
2014-Aug-22 15:33N 37°50' E 023°46'0 0.0
2014-Aug-22 14:30N 37°50' E 023°46'0 0.0
2014-Aug-22 13:27N 37°50' E 023°46'0 0.0
2014-Aug-22 12:30N 37°50' E 023°46'0 0.0
2014-Aug-22 11:33N 37°50' E 023°46'0 0.0
2014-Aug-22 10:33N 37°50' E 023°46'0 0.1
2014-Aug-22 09:24N 37°50' E 023°46'0 0.0
2014-Aug-22 08:30N 37°50' E 023°46'0 0.0
2014-Aug-22 07:33N 37°50' E 023°46'0 0.0
2014-Aug-22 06:24N 37°50' E 023°46'0 0.0
2014-Aug-22 05:24N 37°50' E 023°46'0 0.0
2014-Aug-22 04:30N 37°50' E 023°46'0 0.0
2014-Aug-22 03:30N 37°50' E 023°46'0 0.0
2014-Aug-22 02:33N 37°50' E 023°46'0 0.0
2014-Aug-22 01:30N 37°50' E 023°46'0 0.0
2014-Aug-22 00:30N 37°50' E 023°46'0 0.0
2014-Aug-21 23:30N 37°50' E 023°46'0 0.0
2014-Aug-21 22:33N 37°50' E 023°46'0 0.0
2014-Aug-21 21:30N 37°50' E 023°46'0 0.0
2014-Aug-21 20:30N 37°50' E 023°46'0 0.0
2014-Aug-21 19:30N 37°50' E 023°46'0 0.0
2014-Aug-21 18:33N 37°50' E 023°46'0 0.0
2014-Aug-21 17:30N 37°50' E 023°46'0 0.0
2014-Aug-21 16:33N 37°50' E 023°46'0 0.0
2014-Aug-21 15:33N 37°50' E 023°46'0 0.0
2014-Aug-21 14:30N 37°50' E 023°46'0 0.0
2014-Aug-21 13:30N 37°50' E 023°46'0 0.0
2014-Aug-21 12:33N 37°50' E 023°46'0 0.0
2014-Aug-21 11:33N 37°50' E 023°46'0 0.0
2014-Aug-21 10:24N 37°50' E 023°46'0 0.0
2014-Aug-21 09:30N 37°50' E 023°46'0 0.0
2014-Aug-21 08:30N 37°50' E 023°46'0 0.0
2014-Aug-21 07:33N 37°50' E 023°46'0 0.0
2014-Aug-21 06:33N 37°50' E 023°46'0 0.0
2014-Aug-21 05:33N 37°50' E 023°46'5 5.2
2014-Aug-21 04:33N 37°45' E 023°44'  

Dump ship's entire track history